SwitzerlandFixed distance
Trail Verbier Saint-Bernard by UTMB - X-Traversée
12–13 Jul2025
Distance
76km
Finishers
1,156990 men166 women
Winning time
9:08:55h
Median pace
4.53km/h
Pace distribution
1,156 finishers · 2.90–8.31 km/h · mean 4.61
Every finisher ran the same 76 km course, so these paces are directly comparable.
Histogram of finisher pace. 1,156 finishers ranged from 2.90 to 8.31 kilometres per hour, with a mean of 4.61 and a median of 4.53. The busiest band is 4.5 to 5.0 kilometres per hour, with 252 finishers.
Results
Ranks 851–900 of 1,156
| Rank | Runner | Time | Pace | Cat. | Placing |
|---|---|---|---|---|---|
| 851 | Padiou, QuentinFranceMan | 19:04:08h | 3.99 | M23 | 745th M · 307th M23 |
| 852 | Quennemet, AugustinFranceMan | 19:04:12h | 3.98 | M23 | 746th M · 308th M23 |
| 853 | Blary, KarineFranceWoman | 19:04:52h | 3.98 | W45 | 107th F · 20th W45 |
| 854 | Delval, AlexandreFranceMan | 19:04:53h | 3.98 | M35 | 747th M · 148th M35 |
| 855 | Francq, JulienFranceMan Team Holnon | 19:05:13h | 3.98 | M40 | 748th M · 101st M40 |
| 856 | Capitanio, BenoitFranceMan | 19:05:24h | 3.98 | M40 | 749th M · 102nd M40 |
| 857 | Villeval, JeremyFranceMan | 19:07:14h | 3.98 | M50 | 750th M · 50th M50 |
| 858 | Stutzer, OliverGermanyMan Getec Running | 19:07:25h | 3.97 | M50 | 751st M · 51st M50 |
| 859 | Keller, Anna-KarolinaGermanyWoman | 19:08:10h | 3.97 | W23 | 108th F · 45th W23 |
| 860 | Boutet, StephaneFranceMan | 19:08:49h | 3.97 | M50 | 752nd M · 52nd M50 |
| 861 | Vionnet, OlivierFranceMan | 19:09:30h | 3.97 | M45 | 753rd M · 89th M45 |
| 862 | Durussel, LeonardSwitzerlandMan | 19:10:44h | 3.96 | M23 | 754th M · 309th M23 |
| 863 | Verckens, Jean-ChristopheFranceMan | 19:11:56h | 3.96 | M45 | 755th M · 90th M45 |
| 864 | Lidoyne, BertrandFranceMan Savoie Maurienne Trail | 19:11:57h | 3.96 | M45 | 756th M · 91st M45 |
| 865 | Scherrer, ThibautFranceMan Colmar Trail Aventures | 19:12:20h | 3.96 | M45 | 757th M · 92nd M45 |
| 866 | Szim, AndrasHungaryMan | 19:13:16h | 3.95 | M45 | 758th M · 93rd M45 |
| 867 | Vemulkar, TarunGreat BritainMan | 19:13:51h | 3.95 | M35 | 759th M · 149th M35 |
| 868 | Manta, RolandSwitzerlandMan | 19:14:36h | 3.95 | M55 | 760th M · 22nd M55 |
| 869 | Martin, CyrilFranceMan Team Versailles Montreuil | 19:14:41h | 3.95 | M45 | 761st M · 94th M45 |
| 870 | Brunet, PhilippeFranceMan | 19:14:53h | 3.95 | M60 | 762nd M · 11th M60 |
| 871 | Haefeli, MichaelSwitzerlandMan | 19:14:54h | 3.95 | M23 | 763rd M · 310th M23 |
| 872 | Finster, JoGermanyMan Trail Team Osnabrück | 19:17:16h | 3.94 | M35 | 764th M · 150th M35 |
| 873 | Jongenelen, SergeNetherlandsMan | 19:17:53h | 3.94 | M40 | 765th M · 103rd M40 |
| 874 | Denis, VincentBelgiumMan Potentrail | 19:17:56h | 3.94 | M35 | 766th M · 151st M35 |
| 875 | Verdoolaege, Jean-MichelBelgiumMan Run IN Angers | 19:18:49h | 3.94 | M45 | 767th M · 95th M45 |
| 876 | Bouarek, MalikFranceMan | 19:19:19h | 3.93 | M50 | 768th M · 53rd M50 |
| 877 | Lambert, TanguyFranceMan | 19:19:26h | 3.93 | M23 | 769th M · 311th M23 |
| 878 | Francois, Anne-CecileFranceWoman CA Champigneulles | 19:20:36h | 3.93 | W40 | 109th F · 14th W40 |
| 879 | Le Provost, RonanFranceMan | 19:20:37h | 3.93 | M23 | 770th M · 312th M23 |
| 880 | Rudolph, FredericSwitzerlandMan Team Andy! | 19:20:39h | 3.93 | M50 | 771st M · 54th M50 |
| 881 | Gendvilaite, SonataLithuaniaWoman #Unbreakable | 19:21:19h | 3.93 | W50 | 110th F · 10th W50 |
| 882 | Sikora, AntonyFranceMan Asaspp | 19:22:04h | 3.92 | M23 | 772nd M · 313th M23 |
| 883 | Bengtsson, OlaSwitzerlandMan | 19:23:31h | 3.92 | M45 | 773rd M · 96th M45 |
| 884 | Basso, PierreFranceMan | 19:23:35h | 3.92 | M23 | 774th M · 314th M23 |
| 885 | Yau, KamanGreat BritainWoman | 19:25:23h | 3.91 | W50 | 111th F · 11th W50 |
| 886 | Maldonado, MoisesMexicoMan UN Runners | 19:26:49h | 3.91 | M35 | 775th M · 152nd M35 |
| 887 | Schroeder, ChristianGermanyMan | 19:27:29h | 3.91 | M40 | 776th M · 104th M40 |
| 888 | Brey, AndreasFranceMan Fombes Trail Team | 19:27:40h | 3.90 | M35 | 777th M · 153rd M35 |
| 889 | Hortig, AlexanderGermanyMan Spessartkind | 19:27:54h | 3.90 | M55 | 778th M · 23rd M55 |
| 890 | Grolleau, FlorianFranceMan | 19:28:39h | 3.90 | M35 | 779th M · 154th M35 |
| 891 | Huxley, RomainFranceMan Conviviatrail | 19:29:07h | 3.90 | M23 | 780th M · 315th M23 |
| 892 | Carpentier, JimmyFranceMan Appart Fitness Pringy | 19:29:42h | 3.90 | M45 | 781st M · 97th M45 |
| 893 | Charles, PierreFranceMan | 19:30:13h | 3.90 | M40 | 782nd M · 105th M40 |
| 894 | Di Mattia, ThomasFranceMan | 19:30:15h | 3.90 | M23 | 783rd M · 316th M23 |
| 895 | Heisser, BenjaminFranceMan | 19:30:19h | 3.90 | M35 | 784th M · 155th M35 |
| 896 | Magnan, EricFranceMan | 19:30:23h | 3.90 | M23 | 785th M · 317th M23 |
| 897 | Magnan, LoicFranceMan | 19:30:24h | 3.90 | M40 | 786th M · 106th M40 |
| 898 | Plennevaux, Pierre-HenriBelgiumMan 191 BPM Running Club | 19:31:56h | 3.89 | M23 | 787th M · 318th M23 |
| 899 | Vindret, JeremieFranceMan | 19:32:47h | 3.89 | M23 | 788th M · 319th M23 |
| 900 | Michaud, CorinneFranceWoman Cmbm | 19:35:36h | 3.88 | W55 | 112th F · 4th W55 |
- 851Padiou, QuentinFranceMan745th M · 307th M23Time19:04:08hPace3.99Cat.M23
- 852Quennemet, AugustinFranceMan746th M · 308th M23Time19:04:12hPace3.98Cat.M23
- 853Blary, KarineFranceWoman107th F · 20th W45Time19:04:52hPace3.98Cat.W45
- 854Delval, AlexandreFranceMan747th M · 148th M35Time19:04:53hPace3.98Cat.M35
- 855Francq, JulienFranceManTeam Holnon748th M · 101st M40Time19:05:13hPace3.98Cat.M40
- 856Capitanio, BenoitFranceMan749th M · 102nd M40Time19:05:24hPace3.98Cat.M40
- 857Villeval, JeremyFranceMan750th M · 50th M50Time19:07:14hPace3.98Cat.M50
- 858Stutzer, OliverGermanyManGetec Running751st M · 51st M50Time19:07:25hPace3.97Cat.M50
- 859Keller, Anna-KarolinaGermanyWoman108th F · 45th W23Time19:08:10hPace3.97Cat.W23
- 860Boutet, StephaneFranceMan752nd M · 52nd M50Time19:08:49hPace3.97Cat.M50
- 861Vionnet, OlivierFranceMan753rd M · 89th M45Time19:09:30hPace3.97Cat.M45
- 862Durussel, LeonardSwitzerlandMan754th M · 309th M23Time19:10:44hPace3.96Cat.M23
- 863Verckens, Jean-ChristopheFranceMan755th M · 90th M45Time19:11:56hPace3.96Cat.M45
- 864Lidoyne, BertrandFranceManSavoie Maurienne Trail756th M · 91st M45Time19:11:57hPace3.96Cat.M45
- 865Scherrer, ThibautFranceManColmar Trail Aventures757th M · 92nd M45Time19:12:20hPace3.96Cat.M45
- 866Szim, AndrasHungaryMan758th M · 93rd M45Time19:13:16hPace3.95Cat.M45
- 867Vemulkar, TarunGreat BritainMan759th M · 149th M35Time19:13:51hPace3.95Cat.M35
- 868Manta, RolandSwitzerlandMan760th M · 22nd M55Time19:14:36hPace3.95Cat.M55
- 869Martin, CyrilFranceManTeam Versailles Montreuil761st M · 94th M45Time19:14:41hPace3.95Cat.M45
- 870Brunet, PhilippeFranceMan762nd M · 11th M60Time19:14:53hPace3.95Cat.M60
- 871Haefeli, MichaelSwitzerlandMan763rd M · 310th M23Time19:14:54hPace3.95Cat.M23
- 872Finster, JoGermanyManTrail Team Osnabrück764th M · 150th M35Time19:17:16hPace3.94Cat.M35
- 873Jongenelen, SergeNetherlandsMan765th M · 103rd M40Time19:17:53hPace3.94Cat.M40
- 874Denis, VincentBelgiumManPotentrail766th M · 151st M35Time19:17:56hPace3.94Cat.M35
- 875Verdoolaege, Jean-MichelBelgiumManRun IN Angers767th M · 95th M45Time19:18:49hPace3.94Cat.M45
- 876Bouarek, MalikFranceMan768th M · 53rd M50Time19:19:19hPace3.93Cat.M50
- 877Lambert, TanguyFranceMan769th M · 311th M23Time19:19:26hPace3.93Cat.M23
- 878Francois, Anne-CecileFranceWomanCA Champigneulles109th F · 14th W40Time19:20:36hPace3.93Cat.W40
- 879Le Provost, RonanFranceMan770th M · 312th M23Time19:20:37hPace3.93Cat.M23
- 880Rudolph, FredericSwitzerlandManTeam Andy!771st M · 54th M50Time19:20:39hPace3.93Cat.M50
- 881Gendvilaite, SonataLithuaniaWoman#Unbreakable110th F · 10th W50Time19:21:19hPace3.93Cat.W50
- 882Sikora, AntonyFranceManAsaspp772nd M · 313th M23Time19:22:04hPace3.92Cat.M23
- 883Bengtsson, OlaSwitzerlandMan773rd M · 96th M45Time19:23:31hPace3.92Cat.M45
- 884Basso, PierreFranceMan774th M · 314th M23Time19:23:35hPace3.92Cat.M23
- 885Yau, KamanGreat BritainWoman111th F · 11th W50Time19:25:23hPace3.91Cat.W50
- 886Maldonado, MoisesMexicoManUN Runners775th M · 152nd M35Time19:26:49hPace3.91Cat.M35
- 887Schroeder, ChristianGermanyMan776th M · 104th M40Time19:27:29hPace3.91Cat.M40
- 888Brey, AndreasFranceManFombes Trail Team777th M · 153rd M35Time19:27:40hPace3.90Cat.M35
- 889Hortig, AlexanderGermanyManSpessartkind778th M · 23rd M55Time19:27:54hPace3.90Cat.M55
- 890Grolleau, FlorianFranceMan779th M · 154th M35Time19:28:39hPace3.90Cat.M35
- 891Huxley, RomainFranceManConviviatrail780th M · 315th M23Time19:29:07hPace3.90Cat.M23
- 892Carpentier, JimmyFranceManAppart Fitness Pringy781st M · 97th M45Time19:29:42hPace3.90Cat.M45
- 893Charles, PierreFranceMan782nd M · 105th M40Time19:30:13hPace3.90Cat.M40
- 894Di Mattia, ThomasFranceMan783rd M · 316th M23Time19:30:15hPace3.90Cat.M23
- 895Heisser, BenjaminFranceMan784th M · 155th M35Time19:30:19hPace3.90Cat.M35
- 896Magnan, EricFranceMan785th M · 317th M23Time19:30:23hPace3.90Cat.M23
- 897Magnan, LoicFranceMan786th M · 106th M40Time19:30:24hPace3.90Cat.M40
- 898Plennevaux, Pierre-HenriBelgiumMan191 BPM Running Club787th M · 318th M23Time19:31:56hPace3.89Cat.M23
- 899Vindret, JeremieFranceMan788th M · 319th M23Time19:32:47hPace3.89Cat.M23
- 900Michaud, CorinneFranceWomanCmbm112th F · 4th W55Time19:35:36hPace3.88Cat.W55
Showing ranks 851–900 of 1,156